createdAt,value
2019-04-04T13:45:04.914Z,7.5
2019-04-04T14:00:04.729Z,7.5
2019-04-04T14:15:04.843Z,7.3
2019-04-04T14:30:04.843Z,7.4
2019-04-04T14:45:06.747Z,7.3
2019-04-04T15:00:04.935Z,7.2
2019-04-04T15:15:05.007Z,6.9
2019-04-04T15:30:04.886Z,6.5
2019-04-04T15:45:04.973Z,6.5
2019-04-04T16:00:05.009Z,6.3
2019-04-04T16:15:05.014Z,6.1
2019-04-04T16:30:08.354Z,6.1
2019-04-04T16:45:07.829Z,6.1
2019-04-04T17:00:05.143Z,5.8
2019-04-04T17:15:05.207Z,5.5
2019-04-04T17:30:05.268Z,5.2
2019-04-04T17:45:05.289Z,5.1
2019-04-04T18:00:05.277Z,5.2
2019-04-04T18:15:05.373Z,5.2
2019-04-04T18:30:05.531Z,5.2
2019-04-04T18:45:05.406Z,5.1
2019-04-04T19:00:05.483Z,5
2019-04-04T19:15:08.083Z,5
2019-04-04T19:30:05.547Z,4.8
2019-04-04T19:45:05.591Z,4.7
2019-04-04T20:00:05.628Z,4.7
2019-04-04T20:15:05.742Z,4.7
2019-04-04T20:30:05.715Z,4.6
2019-04-04T20:45:05.742Z,4.6
2019-04-04T21:00:05.748Z,4.6
2019-04-04T21:15:05.827Z,4.6
2019-04-04T21:30:05.864Z,4.5
2019-04-04T21:45:05.881Z,4.6
2019-04-04T22:00:05.949Z,4.6
2019-04-04T22:15:06.059Z,4.5
2019-04-04T22:30:06.032Z,4.3
2019-04-04T22:45:06.033Z,4.4
2019-04-04T23:00:06.159Z,4.4
2019-04-04T23:15:06.131Z,4.2
2019-04-04T23:30:06.144Z,4.3
2019-04-04T23:45:06.286Z,4.3
